sensor_id;sensor_type;location;lat;lon;timestamp;P1;durP1;ratioP1;P2;durP2;ratioP2
4355;SDS011;64374;51.482;7.408;2023-05-10T00:02:13;1.97;;;1.87;;
4355;SDS011;64374;51.482;7.408;2023-05-10T00:04:42;1.60;;;1.43;;
4355;SDS011;64374;51.482;7.408;2023-05-10T00:07:10;3.97;;;1.87;;
4355;SDS011;64374;51.482;7.408;2023-05-10T00:09:39;2.30;;;2.00;;
4355;SDS011;64374;51.482;7.408;2023-05-10T00:12:08;2.00;;;1.80;;
4355;SDS011;64374;51.482;7.408;2023-05-10T00:14:39;2.50;;;2.30;;
4355;SDS011;64374;51.482;7.408;2023-05-10T00:17:07;3.00;;;2.80;;
4355;SDS011;64374;51.482;7.408;2023-05-10T00:19:35;4.40;;;2.70;;
4355;SDS011;64374;51.482;7.408;2023-05-10T00:22:03;3.83;;;2.67;;
4355;SDS011;64374;51.482;7.408;2023-05-10T00:24:31;3.50;;;3.20;;
4355;SDS011;64374;51.482;7.408;2023-05-10T00:27:01;2.70;;;2.50;;
4355;SDS011;64374;51.482;7.408;2023-05-10T00:29:30;3.57;;;3.17;;
4355;SDS011;64374;51.482;7.408;2023-05-10T00:32:02;4.40;;;3.40;;
4355;SDS011;64374;51.482;7.408;2023-05-10T00:34:30;3.30;;;3.00;;
4355;SDS011;64374;51.482;7.408;2023-05-10T00:36:58;4.57;;;3.80;;
4355;SDS011;64374;51.482;7.408;2023-05-10T00:39:27;6.73;;;4.30;;
4355;SDS011;64374;51.482;7.408;2023-05-10T00:41:56;4.90;;;4.20;;
4355;SDS011;64374;51.482;7.408;2023-05-10T00:44:25;4.37;;;3.80;;
4355;SDS011;64374;51.482;7.408;2023-05-10T00:46:54;4.40;;;4.00;;
4355;SDS011;64374;51.482;7.408;2023-05-10T00:49:23;4.27;;;3.87;;
4355;SDS011;64374;51.482;7.408;2023-05-10T00:51:52;4.17;;;3.87;;
4355;SDS011;64374;51.482;7.408;2023-05-10T00:54:22;4.80;;;3.80;;
4355;SDS011;64374;51.482;7.408;2023-05-10T00:56:51;5.50;;;4.50;;
4355;SDS011;64374;51.482;7.408;2023-05-10T00:59:19;5.07;;;3.27;;
4355;SDS011;64374;51.482;7.408;2023-05-10T01:01:50;4.00;;;3.70;;
4355;SDS011;64374;51.482;7.408;2023-05-10T01:04:19;4.77;;;3.20;;
4355;SDS011;64374;51.482;7.408;2023-05-10T01:06:53;3.93;;;3.53;;
4355;SDS011;64374;51.482;7.408;2023-05-10T01:09:23;6.70;;;4.80;;
4355;SDS011;64374;51.482;7.408;2023-05-10T01:11:53;5.57;;;4.77;;
4355;SDS011;64374;51.482;7.408;2023-05-10T01:14:24;7.20;;;5.50;;
4355;SDS011;64374;51.482;7.408;2023-05-10T01:16:53;5.67;;;5.13;;
4355;SDS011;64374;51.482;7.408;2023-05-10T01:19:23;6.53;;;5.83;;
4355;SDS011;64374;51.482;7.408;2023-05-10T01:21:59;7.00;;;6.30;;
4355;SDS011;64374;51.482;7.408;2023-05-10T01:24:51;6.80;;;5.57;;
4355;SDS011;64374;51.482;7.408;2023-05-10T01:27:40;8.37;;;6.27;;
4355;SDS011;64374;51.482;7.408;2023-05-10T01:30:35;9.40;;;6.40;;
4355;SDS011;64374;51.482;7.408;2023-05-10T01:33:34;8.07;;;7.13;;
4355;SDS011;64374;51.482;7.408;2023-05-10T01:36:08;8.13;;;7.27;;
4355;SDS011;64374;51.482;7.408;2023-05-10T01:38:46;8.20;;;7.20;;
4355;SDS011;64374;51.482;7.408;2023-05-10T01:41:20;7.93;;;6.50;;
4355;SDS011;64374;51.482;7.408;2023-05-10T01:43:57;8.43;;;7.27;;
4355;SDS011;64374;51.482;7.408;2023-05-10T01:46:32;7.97;;;6.77;;
4355;SDS011;64374;51.482;7.408;2023-05-10T01:49:07;7.50;;;6.40;;
4355;SDS011;64374;51.482;7.408;2023-05-10T01:51:38;7.60;;;6.80;;
4355;SDS011;64374;51.482;7.408;2023-05-10T01:54:09;8.00;;;7.17;;
4355;SDS011;64374;51.482;7.408;2023-05-10T01:56:40;7.87;;;6.90;;
4355;SDS011;64374;51.482;7.408;2023-05-10T01:59:12;11.77;;;8.67;;
4355;SDS011;64374;51.482;7.408;2023-05-10T02:01:43;8.10;;;6.90;;
4355;SDS011;64374;51.482;7.408;2023-05-10T02:04:19;7.77;;;6.27;;
4355;SDS011;64374;51.482;7.408;2023-05-10T02:06:53;9.97;;;7.70;;
4355;SDS011;64374;51.482;7.408;2023-05-10T02:09:22;6.37;;;5.37;;
4355;SDS011;64374;51.482;7.408;2023-05-10T02:11:53;7.30;;;5.50;;
4355;SDS011;64374;51.482;7.408;2023-05-10T02:14:23;5.87;;;5.27;;
4355;SDS011;64374;51.482;7.408;2023-05-10T02:16:54;5.53;;;4.60;;
4355;SDS011;64374;51.482;7.408;2023-05-10T02:19:28;10.43;;;6.37;;
4355;SDS011;64374;51.482;7.408;2023-05-10T02:21:59;8.10;;;4.93;;
4355;SDS011;64374;51.482;7.408;2023-05-10T02:24:29;5.70;;;4.50;;
4355;SDS011;64374;51.482;7.408;2023-05-10T02:26:59;7.50;;;4.63;;
4355;SDS011;64374;51.482;7.408;2023-05-10T02:29:31;3.93;;;3.50;;
4355;SDS011;64374;51.482;7.408;2023-05-10T02:32:02;4.80;;;3.80;;
4355;SDS011;64374;51.482;7.408;2023-05-10T02:34:38;4.77;;;4.00;;
4355;SDS011;64374;51.482;7.408;2023-05-10T02:37:07;5.10;;;4.53;;
4355;SDS011;64374;51.482;7.408;2023-05-10T02:39:36;5.00;;;3.23;;
4355;SDS011;64374;51.482;7.408;2023-05-10T02:42:11;3.67;;;3.37;;
4355;SDS011;64374;51.482;7.408;2023-05-10T02:44:45;3.10;;;2.90;;
4355;SDS011;64374;51.482;7.408;2023-05-10T02:47:16;3.03;;;2.67;;
4355;SDS011;64374;51.482;7.408;2023-05-10T02:49:48;2.17;;;1.97;;
4355;SDS011;64374;51.482;7.408;2023-05-10T02:52:19;2.07;;;1.60;;
4355;SDS011;64374;51.482;7.408;2023-05-10T02:54:54;1.90;;;1.70;;
4355;SDS011;64374;51.482;7.408;2023-05-10T02:57:26;3.20;;;2.20;;
4355;SDS011;64374;51.482;7.408;2023-05-10T02:59:57;1.33;;;1.23;;
4355;SDS011;64374;51.482;7.408;2023-05-10T03:02:28;3.00;;;2.07;;
4355;SDS011;64374;51.482;7.408;2023-05-10T03:05:00;2.27;;;2.07;;
4355;SDS011;64374;51.482;7.408;2023-05-10T03:07:30;2.80;;;2.33;;
4355;SDS011;64374;51.482;7.408;2023-05-10T03:10:00;1.80;;;1.70;;
4355;SDS011;64374;51.482;7.408;2023-05-10T03:12:41;4.60;;;4.13;;
4355;SDS011;64374;51.482;7.408;2023-05-10T03:15:31;13.13;;;3.60;;
4355;SDS011;64374;51.482;7.408;2023-05-10T03:18:06;7.83;;;5.33;;
4355;SDS011;64374;51.482;7.408;2023-05-10T03:20:42;6.67;;;5.77;;
4355;SDS011;64374;51.482;7.408;2023-05-10T03:23:20;8.67;;;6.40;;
4355;SDS011;64374;51.482;7.408;2023-05-10T03:25:54;8.27;;;7.30;;
4355;SDS011;64374;51.482;7.408;2023-05-10T03:28:22;6.83;;;6.07;;
4355;SDS011;64374;51.482;7.408;2023-05-10T03:30:54;11.80;;;8.77;;
4355;SDS011;64374;51.482;7.408;2023-05-10T03:33:23;9.53;;;8.47;;
4355;SDS011;64374;51.482;7.408;2023-05-10T03:35:53;14.00;;;8.93;;
4355;SDS011;64374;51.482;7.408;2023-05-10T03:38:22;10.33;;;8.83;;
4355;SDS011;64374;51.482;7.408;2023-05-10T03:40:51;13.10;;;9.00;;
4355;SDS011;64374;51.482;7.408;2023-05-10T03:43:21;12.10;;;9.07;;
4355;SDS011;64374;51.482;7.408;2023-05-10T03:45:51;9.20;;;8.20;;
4355;SDS011;64374;51.482;7.408;2023-05-10T03:48:19;11.83;;;8.83;;
4355;SDS011;64374;51.482;7.408;2023-05-10T03:50:48;10.90;;;9.10;;
4355;SDS011;64374;51.482;7.408;2023-05-10T03:53:19;14.57;;;9.33;;
4355;SDS011;64374;51.482;7.408;2023-05-10T03:55:48;16.47;;;10.93;;
4355;SDS011;64374;51.482;7.408;2023-05-10T03:58:17;11.87;;;8.73;;
4355;SDS011;64374;51.482;7.408;2023-05-10T04:00:45;10.47;;;9.30;;
4355;SDS011;64374;51.482;7.408;2023-05-10T04:03:13;13.60;;;10.80;;
4355;SDS011;64374;51.482;7.408;2023-05-10T04:05:42;12.67;;;9.13;;
4355;SDS011;64374;51.482;7.408;2023-05-10T04:08:34;13.63;;;10.23;;
4355;SDS011;64374;51.482;7.408;2023-05-10T04:11:06;16.50;;;10.93;;
4355;SDS011;64374;51.482;7.408;2023-05-10T04:13:42;14.53;;;9.30;;
4355;SDS011;64374;51.482;7.408;2023-05-10T04:16:11;18.40;;;10.50;;
4355;SDS011;64374;51.482;7.408;2023-05-10T04:18:39;10.53;;;8.20;;
4355;SDS011;64374;51.482;7.408;2023-05-10T04:21:10;14.23;;;9.83;;
4355;SDS011;64374;51.482;7.408;2023-05-10T04:23:41;12.60;;;9.73;;
4355;SDS011;64374;51.482;7.408;2023-05-10T04:26:09;13.33;;;9.17;;
4355;SDS011;64374;51.482;7.408;2023-05-10T04:28:37;10.70;;;8.37;;
4355;SDS011;64374;51.482;7.408;2023-05-10T04:31:07;11.90;;;8.47;;
4355;SDS011;64374;51.482;7.408;2023-05-10T04:33:36;11.10;;;8.60;;
4355;SDS011;64374;51.482;7.408;2023-05-10T04:36:05;18.97;;;10.20;;
4355;SDS011;64374;51.482;7.408;2023-05-10T04:38:34;13.33;;;10.13;;
4355;SDS011;64374;51.482;7.408;2023-05-10T04:41:07;17.93;;;12.47;;
4355;SDS011;64374;51.482;7.408;2023-05-10T04:43:37;19.90;;;13.90;;
4355;SDS011;64374;51.482;7.408;2023-05-10T04:46:06;20.23;;;12.77;;
4355;SDS011;64374;51.482;7.408;2023-05-10T04:48:34;22.40;;;14.93;;
4355;SDS011;64374;51.482;7.408;2023-05-10T04:51:02;22.70;;;14.90;;
4355;SDS011;64374;51.482;7.408;2023-05-10T04:53:33;19.97;;;14.67;;
4355;SDS011;64374;51.482;7.408;2023-05-10T04:56:01;23.73;;;15.57;;
4355;SDS011;64374;51.482;7.408;2023-05-10T04:58:33;24.33;;;16.77;;
4355;SDS011;64374;51.482;7.408;2023-05-10T05:01:04;29.63;;;19.10;;
4355;SDS011;64374;51.482;7.408;2023-05-10T05:03:34;25.63;;;17.40;;
4355;SDS011;64374;51.482;7.408;2023-05-10T05:06:03;24.77;;;16.90;;
4355;SDS011;64374;51.482;7.408;2023-05-10T05:08:32;25.97;;;15.77;;
4355;SDS011;64374;51.482;7.408;2023-05-10T05:11:01;26.40;;;18.27;;
4355;SDS011;64374;51.482;7.408;2023-05-10T05:13:30;26.57;;;17.40;;
4355;SDS011;64374;51.482;7.408;2023-05-10T05:16:00;27.37;;;18.47;;
4355;SDS011;64374;51.482;7.408;2023-05-10T05:18:29;28.60;;;18.30;;
4355;SDS011;64374;51.482;7.408;2023-05-10T05:20:57;26.67;;;17.70;;
4355;SDS011;64374;51.482;7.408;2023-05-10T05:23:26;24.30;;;17.27;;
4355;SDS011;64374;51.482;7.408;2023-05-10T05:25:55;29.47;;;18.10;;
4355;SDS011;64374;51.482;7.408;2023-05-10T05:28:23;31.80;;;20.20;;
4355;SDS011;64374;51.482;7.408;2023-05-10T05:31:15;35.43;;;19.00;;
4355;SDS011;64374;51.482;7.408;2023-05-10T05:33:44;32.10;;;19.17;;
4355;SDS011;64374;51.482;7.408;2023-05-10T05:36:13;29.83;;;20.47;;
4355;SDS011;64374;51.482;7.408;2023-05-10T05:38:41;32.10;;;21.43;;
4355;SDS011;64374;51.482;7.408;2023-05-10T05:41:09;32.20;;;18.63;;
4355;SDS011;64374;51.482;7.408;2023-05-10T05:43:38;30.93;;;21.50;;
4355;SDS011;64374;51.482;7.408;2023-05-10T05:46:06;31.03;;;21.40;;
4355;SDS011;64374;51.482;7.408;2023-05-10T05:48:36;42.50;;;24.90;;
4355;SDS011;64374;51.482;7.408;2023-05-10T05:51:04;32.50;;;21.83;;
4355;SDS011;64374;51.482;7.408;2023-05-10T05:53:33;35.87;;;22.33;;
4355;SDS011;64374;51.482;7.408;2023-05-10T05:56:01;44.60;;;23.40;;
4355;SDS011;64374;51.482;7.408;2023-05-10T05:58:30;34.10;;;22.43;;
4355;SDS011;64374;51.482;7.408;2023-05-10T06:00:58;30.33;;;21.90;;
4355;SDS011;64374;51.482;7.408;2023-05-10T06:03:27;29.67;;;21.40;;
4355;SDS011;64374;51.482;7.408;2023-05-10T06:05:59;38.53;;;22.50;;
4355;SDS011;64374;51.482;7.408;2023-05-10T06:08:27;32.83;;;21.57;;
4355;SDS011;64374;51.482;7.408;2023-05-10T06:10:55;43.90;;;27.03;;
4355;SDS011;64374;51.482;7.408;2023-05-10T06:13:24;38.07;;;23.40;;
4355;SDS011;64374;51.482;7.408;2023-05-10T06:15:56;43.40;;;24.90;;
4355;SDS011;64374;51.482;7.408;2023-05-10T06:18:24;36.97;;;22.03;;
4355;SDS011;64374;51.482;7.408;2023-05-10T06:20:52;44.60;;;24.60;;
4355;SDS011;64374;51.482;7.408;2023-05-10T06:23:22;42.13;;;27.00;;
4355;SDS011;64374;51.482;7.408;2023-05-10T06:25:52;39.03;;;23.70;;
4355;SDS011;64374;51.482;7.408;2023-05-10T06:28:21;41.13;;;24.50;;
4355;SDS011;64374;51.482;7.408;2023-05-10T06:30:51;40.60;;;25.20;;
4355;SDS011;64374;51.482;7.408;2023-05-10T06:33:19;43.30;;;26.60;;
4355;SDS011;64374;51.482;7.408;2023-05-10T06:35:47;45.87;;;26.00;;
4355;SDS011;64374;51.482;7.408;2023-05-10T06:38:16;46.57;;;28.70;;
4355;SDS011;64374;51.482;7.408;2023-05-10T06:40:45;38.80;;;26.50;;
4355;SDS011;64374;51.482;7.408;2023-05-10T06:43:14;44.37;;;24.70;;
4355;SDS011;64374;51.482;7.408;2023-05-10T06:45:43;41.50;;;24.87;;
4355;SDS011;64374;51.482;7.408;2023-05-10T06:48:12;37.00;;;26.10;;
4355;SDS011;64374;51.482;7.408;2023-05-10T06:50:41;48.00;;;26.77;;
4355;SDS011;64374;51.482;7.408;2023-05-10T06:53:10;41.83;;;26.97;;
4355;SDS011;64374;51.482;7.408;2023-05-10T06:55:41;42.70;;;25.90;;
4355;SDS011;64374;51.482;7.408;2023-05-10T06:58:11;40.17;;;26.43;;
4355;SDS011;64374;51.482;7.408;2023-05-10T07:00:41;41.10;;;25.30;;
4355;SDS011;64374;51.482;7.408;2023-05-10T07:03:16;35.53;;;24.40;;
4355;SDS011;64374;51.482;7.408;2023-05-10T07:05:47;40.50;;;23.20;;
4355;SDS011;64374;51.482;7.408;2023-05-10T07:08:16;43.97;;;27.33;;
4355;SDS011;64374;51.482;7.408;2023-05-10T07:10:44;41.00;;;26.90;;
4355;SDS011;64374;51.482;7.408;2023-05-10T07:13:14;42.90;;;28.77;;
4355;SDS011;64374;51.482;7.408;2023-05-10T07:15:43;47.03;;;30.53;;
4355;SDS011;64374;51.482;7.408;2023-05-10T07:18:11;40.80;;;26.70;;
4355;SDS011;64374;51.482;7.408;2023-05-10T07:20:40;50.77;;;30.30;;
4355;SDS011;64374;51.482;7.408;2023-05-10T07:23:09;37.63;;;26.30;;
4355;SDS011;64374;51.482;7.408;2023-05-10T07:25:37;43.60;;;28.00;;
4355;SDS011;64374;51.482;7.408;2023-05-10T07:28:05;47.60;;;29.37;;
4355;SDS011;64374;51.482;7.408;2023-05-10T07:30:35;36.33;;;26.60;;
4355;SDS011;64374;51.482;7.408;2023-05-10T07:33:05;41.17;;;24.50;;
4355;SDS011;64374;51.482;7.408;2023-05-10T07:35:33;40.07;;;24.70;;
4355;SDS011;64374;51.482;7.408;2023-05-10T07:38:02;37.20;;;25.07;;
4355;SDS011;64374;51.482;7.408;2023-05-10T07:40:30;32.50;;;22.20;;
4355;SDS011;64374;51.482;7.408;2023-05-10T07:42:59;38.93;;;23.53;;
4355;SDS011;64374;51.482;7.408;2023-05-10T07:45:29;34.83;;;22.30;;
4355;SDS011;64374;51.482;7.408;2023-05-10T07:47:58;36.47;;;23.30;;
4355;SDS011;64374;51.482;7.408;2023-05-10T07:50:27;37.20;;;23.10;;
4355;SDS011;64374;51.482;7.408;2023-05-10T07:52:55;33.47;;;21.77;;
4355;SDS011;64374;51.482;7.408;2023-05-10T07:55:23;34.57;;;23.13;;
4355;SDS011;64374;51.482;7.408;2023-05-10T07:57:52;28.70;;;21.10;;
4355;SDS011;64374;51.482;7.408;2023-05-10T08:00:21;42.00;;;23.37;;
4355;SDS011;64374;51.482;7.408;2023-05-10T08:02:49;40.97;;;22.90;;
4355;SDS011;64374;51.482;7.408;2023-05-10T08:05:19;42.20;;;23.60;;
4355;SDS011;64374;51.482;7.408;2023-05-10T08:07:48;35.50;;;24.00;;
4355;SDS011;64374;51.482;7.408;2023-05-10T08:10:17;38.47;;;22.43;;
4355;SDS011;64374;51.482;7.408;2023-05-10T08:12:45;47.27;;;24.50;;
4355;SDS011;64374;51.482;7.408;2023-05-10T08:15:13;38.43;;;24.30;;
4355;SDS011;64374;51.482;7.408;2023-05-10T08:17:42;40.83;;;24.00;;
4355;SDS011;64374;51.482;7.408;2023-05-10T08:20:11;33.30;;;22.30;;
4355;SDS011;64374;51.482;7.408;2023-05-10T08:22:44;41.23;;;23.50;;
4355;SDS011;64374;51.482;7.408;2023-05-10T08:25:15;39.20;;;24.97;;
4355;SDS011;64374;51.482;7.408;2023-05-10T08:27:45;41.70;;;24.40;;
4355;SDS011;64374;51.482;7.408;2023-05-10T08:30:13;37.03;;;24.93;;
4355;SDS011;64374;51.482;7.408;2023-05-10T08:32:41;41.53;;;26.07;;
4355;SDS011;64374;51.482;7.408;2023-05-10T08:35:10;42.00;;;25.33;;
4355;SDS011;64374;51.482;7.408;2023-05-10T08:37:38;42.70;;;27.33;;
4355;SDS011;64374;51.482;7.408;2023-05-10T08:40:10;48.27;;;27.23;;
4355;SDS011;64374;51.482;7.408;2023-05-10T08:42:43;46.37;;;27.60;;
4355;SDS011;64374;51.482;7.408;2023-05-10T08:45:18;43.20;;;26.13;;
4355;SDS011;64374;51.482;7.408;2023-05-10T08:47:49;36.90;;;22.97;;
4355;SDS011;64374;51.482;7.408;2023-05-10T08:50:20;30.27;;;18.00;;
4355;SDS011;64374;51.482;7.408;2023-05-10T08:52:50;34.53;;;19.83;;
4355;SDS011;64374;51.482;7.408;2023-05-10T08:55:24;29.30;;;16.87;;
4355;SDS011;64374;51.482;7.408;2023-05-10T08:57:53;30.63;;;19.30;;
4355;SDS011;64374;51.482;7.408;2023-05-10T09:00:21;31.80;;;18.47;;
4355;SDS011;64374;51.482;7.408;2023-05-10T09:02:50;33.03;;;20.07;;
4355;SDS011;64374;51.482;7.408;2023-05-10T09:05:19;34.60;;;19.57;;
4355;SDS011;64374;51.482;7.408;2023-05-10T09:07:47;35.63;;;19.03;;
4355;SDS011;64374;51.482;7.408;2023-05-10T09:10:17;46.50;;;21.50;;
4355;SDS011;64374;51.482;7.408;2023-05-10T09:12:48;32.73;;;18.50;;
4355;SDS011;64374;51.482;7.408;2023-05-10T09:15:19;35.43;;;18.57;;
4355;SDS011;64374;51.482;7.408;2023-05-10T09:17:48;35.17;;;19.20;;
4355;SDS011;64374;51.482;7.408;2023-05-10T09:20:17;33.30;;;18.90;;
4355;SDS011;64374;51.482;7.408;2023-05-10T09:22:47;35.80;;;22.90;;
4355;SDS011;64374;51.482;7.408;2023-05-10T09:25:16;34.63;;;18.07;;
4355;SDS011;64374;51.482;7.408;2023-05-10T09:27:46;29.57;;;19.10;;
4355;SDS011;64374;51.482;7.408;2023-05-10T09:30:17;30.53;;;18.00;;
4355;SDS011;64374;51.482;7.408;2023-05-10T09:32:52;28.03;;;17.57;;
4355;SDS011;64374;51.482;7.408;2023-05-10T09:35:23;27.53;;;17.33;;
4355;SDS011;64374;51.482;7.408;2023-05-10T09:37:56;23.60;;;14.90;;
4355;SDS011;64374;51.482;7.408;2023-05-10T09:40:25;19.73;;;13.47;;
4355;SDS011;64374;51.482;7.408;2023-05-10T09:42:57;19.57;;;12.67;;
4355;SDS011;64374;51.482;7.408;2023-05-10T09:45:29;18.27;;;11.80;;
4355;SDS011;64374;51.482;7.408;2023-05-10T09:48:03;24.50;;;15.27;;
4355;SDS011;64374;51.482;7.408;2023-05-10T09:50:33;19.93;;;11.87;;
4355;SDS011;64374;51.482;7.408;2023-05-10T09:53:02;20.90;;;10.10;;
4355;SDS011;64374;51.482;7.408;2023-05-10T09:55:38;14.17;;;10.33;;
4355;SDS011;64374;51.482;7.408;2023-05-10T09:58:10;15.63;;;9.43;;
4355;SDS011;64374;51.482;7.408;2023-05-10T10:00:39;17.70;;;10.80;;
4355;SDS011;64374;51.482;7.408;2023-05-10T10:03:11;11.50;;;8.70;;
4355;SDS011;64374;51.482;7.408;2023-05-10T10:05:40;14.03;;;9.33;;
4355;SDS011;64374;51.482;7.408;2023-05-10T10:08:12;15.63;;;10.13;;
4355;SDS011;64374;51.482;7.408;2023-05-10T10:10:41;11.77;;;8.30;;
4355;SDS011;64374;51.482;7.408;2023-05-10T10:13:14;17.93;;;10.90;;
4355;SDS011;64374;51.482;7.408;2023-05-10T10:15:44;14.60;;;9.63;;
4355;SDS011;64374;51.482;7.408;2023-05-10T10:18:13;16.77;;;10.53;;
4355;SDS011;64374;51.482;7.408;2023-05-10T10:20:42;12.10;;;9.70;;
4355;SDS011;64374;51.482;7.408;2023-05-10T10:23:12;14.30;;;9.63;;
4355;SDS011;64374;51.482;7.408;2023-05-10T10:25:44;13.30;;;8.93;;
4355;SDS011;64374;51.482;7.408;2023-05-10T10:28:19;14.30;;;10.00;;
4355;SDS011;64374;51.482;7.408;2023-05-10T10:30:54;15.30;;;10.50;;
4355;SDS011;64374;51.482;7.408;2023-05-10T10:33:36;18.13;;;9.90;;
4355;SDS011;64374;51.482;7.408;2023-05-10T10:36:15;15.67;;;9.20;;
4355;SDS011;64374;51.482;7.408;2023-05-10T10:41:36;23.13;;;10.13;;
4355;SDS011;64374;51.482;7.408;2023-05-10T10:44:33;15.03;;;10.60;;
4355;SDS011;64374;51.482;7.408;2023-05-10T10:47:07;12.60;;;9.50;;
4355;SDS011;64374;51.482;7.408;2023-05-10T10:49:42;15.30;;;8.80;;
4355;SDS011;64374;51.482;7.408;2023-05-10T10:52:20;23.57;;;12.60;;
4355;SDS011;64374;51.482;7.408;2023-05-10T10:54:50;27.53;;;15.47;;
4355;SDS011;64374;51.482;7.408;2023-05-10T10:57:19;25.80;;;16.57;;
4355;SDS011;64374;51.482;7.408;2023-05-10T10:59:51;33.13;;;18.30;;
4355;SDS011;64374;51.482;7.408;2023-05-10T11:02:34;29.80;;;18.40;;
4355;SDS011;64374;51.482;7.408;2023-05-10T11:08:21;26.53;;;16.40;;
4355;SDS011;64374;51.482;7.408;2023-05-10T11:11:04;21.93;;;14.47;;
4355;SDS011;64374;51.482;7.408;2023-05-10T11:13:38;22.37;;;13.60;;
4355;SDS011;64374;51.482;7.408;2023-05-10T11:16:14;20.80;;;13.73;;
4355;SDS011;64374;51.482;7.408;2023-05-10T11:18:54;20.50;;;11.60;;
4355;SDS011;64374;51.482;7.408;2023-05-10T11:21:27;18.23;;;12.80;;
4355;SDS011;64374;51.482;7.408;2023-05-10T11:23:57;20.73;;;12.70;;
4355;SDS011;64374;51.482;7.408;2023-05-10T11:26:30;17.90;;;11.57;;
4355;SDS011;64374;51.482;7.408;2023-05-10T11:29:00;20.67;;;12.40;;
4355;SDS011;64374;51.482;7.408;2023-05-10T11:31:33;29.77;;;13.07;;
4355;SDS011;64374;51.482;7.408;2023-05-10T11:34:02;18.50;;;12.03;;
4355;SDS011;64374;51.482;7.408;2023-05-10T11:36:32;22.37;;;14.27;;
4355;SDS011;64374;51.482;7.408;2023-05-10T11:39:04;17.33;;;13.43;;
4355;SDS011;64374;51.482;7.408;2023-05-10T11:41:33;24.83;;;12.33;;
4355;SDS011;64374;51.482;7.408;2023-05-10T11:44:02;18.53;;;13.47;;
4355;SDS011;64374;51.482;7.408;2023-05-10T11:46:30;22.53;;;14.67;;
4355;SDS011;64374;51.482;7.408;2023-05-10T11:49:01;21.73;;;13.87;;
4355;SDS011;64374;51.482;7.408;2023-05-10T11:51:33;25.50;;;16.53;;
4355;SDS011;64374;51.482;7.408;2023-05-10T11:54:05;21.50;;;15.10;;
4355;SDS011;64374;51.482;7.408;2023-05-10T11:56:35;27.10;;;15.07;;
4355;SDS011;64374;51.482;7.408;2023-05-10T11:59:05;24.30;;;13.87;;
4355;SDS011;64374;51.482;7.408;2023-05-10T12:01:35;20.93;;;13.77;;
4355;SDS011;64374;51.482;7.408;2023-05-10T12:04:05;19.70;;;14.80;;
4355;SDS011;64374;51.482;7.408;2023-05-10T12:06:36;23.53;;;14.03;;
4355;SDS011;64374;51.482;7.408;2023-05-10T12:09:08;19.50;;;12.27;;
4355;SDS011;64374;51.482;7.408;2023-05-10T12:11:37;20.40;;;11.50;;
4355;SDS011;64374;51.482;7.408;2023-05-10T12:14:10;18.53;;;11.50;;
4355;SDS011;64374;51.482;7.408;2023-05-10T12:16:39;15.03;;;10.20;;
4355;SDS011;64374;51.482;7.408;2023-05-10T12:19:11;19.70;;;10.60;;
4355;SDS011;64374;51.482;7.408;2023-05-10T12:21:39;16.27;;;11.73;;
4355;SDS011;64374;51.482;7.408;2023-05-10T12:24:08;17.03;;;12.10;;
4355;SDS011;64374;51.482;7.408;2023-05-10T12:26:37;17.10;;;11.90;;
4355;SDS011;64374;51.482;7.408;2023-05-10T12:29:12;17.90;;;11.03;;
4355;SDS011;64374;51.482;7.408;2023-05-10T12:31:56;18.87;;;10.50;;
4355;SDS011;64374;51.482;7.408;2023-05-10T12:34:26;15.90;;;9.43;;
4355;SDS011;64374;51.482;7.408;2023-05-10T12:36:59;14.10;;;9.80;;
4355;SDS011;64374;51.482;7.408;2023-05-10T12:39:38;17.37;;;9.80;;
4355;SDS011;64374;51.482;7.408;2023-05-10T12:42:07;15.70;;;9.87;;
4355;SDS011;64374;51.482;7.408;2023-05-10T12:44:36;19.60;;;11.10;;
4355;SDS011;64374;51.482;7.408;2023-05-10T12:47:06;10.50;;;8.83;;
4355;SDS011;64374;51.482;7.408;2023-05-10T12:49:35;16.70;;;8.40;;
4355;SDS011;64374;51.482;7.408;2023-05-10T12:52:03;15.97;;;9.43;;
4355;SDS011;64374;51.482;7.408;2023-05-10T12:54:32;15.57;;;9.70;;
4355;SDS011;64374;51.482;7.408;2023-05-10T12:57:01;11.70;;;9.20;;
4355;SDS011;64374;51.482;7.408;2023-05-10T12:59:31;14.20;;;9.30;;
4355;SDS011;64374;51.482;7.408;2023-05-10T13:02:03;11.17;;;7.77;;
4355;SDS011;64374;51.482;7.408;2023-05-10T13:04:35;11.60;;;8.73;;
4355;SDS011;64374;51.482;7.408;2023-05-10T13:07:06;11.57;;;9.30;;
4355;SDS011;64374;51.482;7.408;2023-05-10T13:09:35;14.77;;;9.40;;
4355;SDS011;64374;51.482;7.408;2023-05-10T13:12:04;13.93;;;8.60;;
4355;SDS011;64374;51.482;7.408;2023-05-10T13:14:35;12.80;;;9.43;;
4355;SDS011;64374;51.482;7.408;2023-05-10T13:17:04;16.23;;;10.23;;
4355;SDS011;64374;51.482;7.408;2023-05-10T13:19:37;13.97;;;9.20;;
4355;SDS011;64374;51.482;7.408;2023-05-10T13:22:08;12.63;;;9.47;;
4355;SDS011;64374;51.482;7.408;2023-05-10T13:24:36;15.30;;;10.50;;
4355;SDS011;64374;51.482;7.408;2023-05-10T13:27:04;11.40;;;8.23;;
4355;SDS011;64374;51.482;7.408;2023-05-10T13:29:33;15.57;;;10.40;;
4355;SDS011;64374;51.482;7.408;2023-05-10T13:32:01;14.17;;;10.20;;
4355;SDS011;64374;51.482;7.408;2023-05-10T13:34:30;17.40;;;10.80;;
4355;SDS011;64374;51.482;7.408;2023-05-10T13:37:01;19.03;;;10.53;;
4355;SDS011;64374;51.482;7.408;2023-05-10T13:39:30;17.23;;;11.33;;
4355;SDS011;64374;51.482;7.408;2023-05-10T13:42:01;18.47;;;11.60;;
4355;SDS011;64374;51.482;7.408;2023-05-10T13:44:31;19.33;;;12.43;;
4355;SDS011;64374;51.482;7.408;2023-05-10T13:47:01;14.60;;;11.13;;
4355;SDS011;64374;51.482;7.408;2023-05-10T13:49:32;13.10;;;10.57;;
4355;SDS011;64374;51.482;7.408;2023-05-10T13:52:03;15.83;;;12.17;;
4355;SDS011;64374;51.482;7.408;2023-05-10T13:54:33;15.90;;;11.10;;
4355;SDS011;64374;51.482;7.408;2023-05-10T13:57:02;13.53;;;9.10;;
4355;SDS011;64374;51.482;7.408;2023-05-10T13:59:31;12.00;;;8.80;;
4355;SDS011;64374;51.482;7.408;2023-05-10T14:01:59;11.40;;;6.20;;
4355;SDS011;64374;51.482;7.408;2023-05-10T14:04:29;7.67;;;6.30;;
4355;SDS011;64374;51.482;7.408;2023-05-10T14:06:59;11.37;;;7.83;;
4355;SDS011;64374;51.482;7.408;2023-05-10T14:09:28;11.80;;;7.33;;
4355;SDS011;64374;51.482;7.408;2023-05-10T14:11:57;6.93;;;6.23;;
4355;SDS011;64374;51.482;7.408;2023-05-10T14:14:26;13.20;;;7.30;;
4355;SDS011;64374;51.482;7.408;2023-05-10T14:16:55;8.00;;;6.10;;
4355;SDS011;64374;51.482;7.408;2023-05-10T14:19:24;5.90;;;5.13;;
4355;SDS011;64374;51.482;7.408;2023-05-10T14:21:55;8.10;;;5.67;;
4355;SDS011;64374;51.482;7.408;2023-05-10T14:24:23;7.87;;;6.20;;
4355;SDS011;64374;51.482;7.408;2023-05-10T14:27:00;7.03;;;6.30;;
4355;SDS011;64374;51.482;7.408;2023-05-10T14:29:30;6.63;;;5.23;;
4355;SDS011;64374;51.482;7.408;2023-05-10T14:31:58;7.80;;;4.70;;
4355;SDS011;64374;51.482;7.408;2023-05-10T14:34:29;5.30;;;4.20;;
4355;SDS011;64374;51.482;7.408;2023-05-10T14:36:58;6.93;;;5.40;;
4355;SDS011;64374;51.482;7.408;2023-05-10T14:39:27;6.07;;;4.50;;
4355;SDS011;64374;51.482;7.408;2023-05-10T14:41:56;3.87;;;3.30;;
4355;SDS011;64374;51.482;7.408;2023-05-10T14:44:26;4.33;;;3.70;;
4355;SDS011;64374;51.482;7.408;2023-05-10T14:46:56;3.83;;;3.53;;
4355;SDS011;64374;51.482;7.408;2023-05-10T14:49:24;5.30;;;4.07;;
4355;SDS011;64374;51.482;7.408;2023-05-10T14:51:52;4.57;;;4.17;;
4355;SDS011;64374;51.482;7.408;2023-05-10T14:54:22;5.23;;;3.83;;
4355;SDS011;64374;51.482;7.408;2023-05-10T14:56:50;4.03;;;3.33;;
4355;SDS011;64374;51.482;7.408;2023-05-10T14:59:20;5.93;;;3.17;;
4355;SDS011;64374;51.482;7.408;2023-05-10T15:01:50;6.77;;;3.67;;
4355;SDS011;64374;51.482;7.408;2023-05-10T15:04:19;5.70;;;3.33;;
4355;SDS011;64374;51.482;7.408;2023-05-10T15:06:48;3.37;;;2.90;;
4355;SDS011;64374;51.482;7.408;2023-05-10T15:09:17;8.40;;;4.10;;
4355;SDS011;64374;51.482;7.408;2023-05-10T15:11:45;7.60;;;3.10;;
4355;SDS011;64374;51.482;7.408;2023-05-10T15:14:13;3.10;;;2.90;;